• Join FlightAware (Why Join?)
  • Login
  • US Flag 
07:21AM EDT


 

Airport Tracker/Info


-or-


 

Live Flight TrackerFlight Track Log ✈ CPZ5750 ✈ 10-Jul-2013 ✈ KMSP - KALB

Flight Track Log - Related Links

Times and Time Zones

All times are in EDT time to prevent confusion due to time zone crossing. See the CPZ5750 flight status page for this flight to view local times or setup timezone preferences in your user account.

Time Position Orientation Groundspeed Altitude Reporting Facility
EDT Latitude Longitude Course Direction KTS MPH feet Rate Location/Type
04:49PM 44.9000 -93.2333 70° East 165 190 2,000  Level Minneapolis TRACON
04:50PM 44.9500 -93.2667 335° Northwest 204 235 3,500 1,800 Climbing Minneapolis TRACON
04:51PM 44.9986 -93.2261 31° Northeast 239 275 5,700 2,280 Climbing Minneapolis Center
04:52PM 45.0536 -92.5709 68° East  Level FlightAware Approximate
04:52PM 45.0303 -93.1275 66° East 273 314 8,300  Level Minneapolis Center
04:53PM 45.0980 -92.4078 70° East  Level FlightAware Approximate
04:53PM 45.0656 -93.0211 65° Northeast 295 339 10,700  Level Minneapolis Center
04:54PM 45.1354 -92.2419 70° East  Level FlightAware Approximate
04:54PM 45.1069 -92.8953 65° Northeast 351 404 12,300  Level Minneapolis Center
04:55PM 45.1586 -92.7358 65° Northeast 372 428 14,800 2,160 Climbing Minneapolis Center
04:56PM 45.2044 -92.5961 65° Northeast 390 449 16,800 1,740 Climbing Minneapolis Center
04:57PM 45.2506 -92.4522 65° Northeast 400 460 18,500 1,680 Climbing Minneapolis Center
04:58PM 45.2978 -92.3036 66° East 411 473 20,300 1,560 Climbing Minneapolis Center
05:00PM 45.3475 -91.9606 78° East 445 512 23,400 1,560 Climbing Minneapolis Center
05:01PM 45.3769 -91.7472 79° East 456 525 25,200 1,380 Climbing Minneapolis Center
05:02PM 45.4006 -91.5681 79° East 460 529 26,300 960 Climbing Minneapolis Center
05:03PM 45.4253 -91.3828 79° East 472 543 27,300 960 Climbing Minneapolis Center
05:04PM 45.4514 -91.1858 79° East 483 556 28,300 900 Climbing Minneapolis Center
05:05PM 45.4614 -90.9919 86° East 490 564 29,200 960 Climbing Minneapolis Center
05:06PM 45.4100 -90.8094 112° Southeast 495 570 30,300 1,020 Climbing Minneapolis Center
05:07PM 45.3531 -90.6306 114° Southeast 499 574 31,400 1,020 Climbing Minneapolis Center
05:08PM 45.2872 -90.4192 114° Southeast 492 566 32,500 720 Climbing Minneapolis Center
05:09PM 45.2317 -90.2425 114° Southeast 491 565 33,000 240 Climbing Minneapolis Center
05:10PM 45.1742 -90.0656 115° Southeast 495 570 33,000  Level Minneapolis Center
05:11PM 45.1172 -89.8889 114° Southeast 495 570 33,000  Level Minneapolis Center
05:12PM 45.0775 -89.6881 106° East 503 579 33,000  Level Minneapolis Center
05:13PM 45.0639 -89.4947 96° East 496 571 33,000  Level Minneapolis Center
05:14PM 45.0506 -89.3006 95° East 496 571 33,000  Level Minneapolis Center
05:15PM 45.0339 -89.0753 96° East 494 568 33,000  Level Minneapolis Center
05:16PM 45.0192 -88.8828 96° East 493 567 33,000  Level Minneapolis Center
05:17PM 45.0058 -88.6869 95° East 497 572 33,000  Level Minneapolis Center
05:19PM 44.9911 -88.4931 96° East 496 571 33,000  Level Minneapolis Center
05:20PM 44.9761 -88.2978 96° East 498 573 33,000  Level Minneapolis Center
05:21PM 44.9572 -88.0803 97° East 497 572 33,000  Level Minneapolis Center
05:22PM 44.9422 -87.8878 96° East 496 571 33,000  Level Minneapolis Center
05:23PM 44.9261 -87.6950 97° East 495 570 33,000  Level Minneapolis Center
05:24PM 44.9094 -87.5022 97° East 497 572 33,000  Level Minneapolis Center
05:25PM 44.8919 -87.3083 97° East 500 575 33,000  Level Minneapolis Center
05:26PM 44.8717 -87.0786 97° East 493 567 33,000  Level Minneapolis Center
05:27PM 44.8533 -86.8869 98° East 495 570 33,000  Level Minneapolis Center
05:28PM 44.8389 -86.7131 97° East 496 571 33,000  Level Minneapolis Center
05:29PM 44.8192 -86.5178 98° East 501 577 33,000  Level Minneapolis Center
05:30PM 44.7969 -86.2861 98° East 499 574 33,000  Level Minneapolis Center
05:31PM 44.7794 -86.0947 97° East 496 571 33,000  Level Minneapolis Center
05:32PM 44.7594 -85.9014 98° East 498 573 33,000  Level Minneapolis Center
05:33PM 44.7403 -85.7097 98° East 496 571 33,000  Level Minneapolis Center
05:34PM 44.7206 -85.5197 98° East 497 572 33,000  Level Minneapolis Center
05:35PM 44.6964 -85.2892 98° East 498 573 33,000  Level Minneapolis Center
05:36PM 44.6758 -85.0972 98° East 498 573 33,000  Level Minneapolis Center
05:37PM 44.6561 -84.9067 98° East 495 570 33,000  Level Minneapolis Center
05:38PM 44.6347 -84.7147 99° East 498 573 33,000  Level Minneapolis Center
05:39PM 44.6133 -84.5228 99° East 500 575 33,000  Level Minneapolis Center
05:40PM 44.5864 -84.2917 99° East 501 577 33,000  Level Minneapolis Center
05:41PM 44.5647 -84.1017 99° East 498 573 33,000  Level Minneapolis Center
05:42PM 44.5422 -83.9094 99° East 499 574 33,000  Level Minneapolis Center
05:43PM 44.5200 -83.7175 99° East 500 575 33,000  Level Minneapolis Center
05:44PM 44.4958 -83.5261 100° East 501 577 33,000  Level Minneapolis Center
05:45PM 44.4719 -83.3328 100° East 503 579 33,000  Level Minneapolis Center
05:46PM 44.4436 -83.0958 99° East 513 590 33,000  Level Minneapolis Center
05:48PM 44.4175 -82.8983 100° East 517 595 33,000  Level Minneapolis Center
05:49PM 44.3928 -82.6992 100° East 519 597 33,000  Level Minneapolis Center
05:50PM 44.3669 -82.5036 100° East 517 595 33,000  Level Minneapolis Center
05:51PM 44.3167 -82.2667 106° East 520 598 33,000  Level Toronto Center
05:52PM 44.2667 -82.0833 111° Southeast 510 587 33,000  Level Toronto Center
05:53PM 44.2333 -81.9167 106° East 510 587 33,000  Level Toronto Center
05:54PM 44.1833 -81.7333 111° Southeast 500 575 33,000  Level Toronto Center
05:55PM 44.1500 -81.5333 103° East 500 575 33,000  Level Toronto Center
05:56PM 44.1000 -81.3500 111° Southeast 500 575 33,000  Level Toronto Center
05:57PM 44.0667 -81.1667 104° East 510 587 33,000  Level Toronto Center
05:58PM 44.0500 -80.9500 96° East 520 598 33,000  Level Toronto Center
05:59PM 44.0500 -80.7667 90° East 520 598 33,000  Level Toronto Center
06:00PM 44.0333 -80.5667 97° East 520 598 33,000  Level Toronto Center
06:01PM 44.0333 -80.3500 90° East 520 598 33,000  Level Toronto Center
06:02PM 44.0167 -80.1500 97° East 520 598 33,000  Level Toronto Center
06:03PM 44.0000 -79.9500 97° East 520 598 33,000  Level Toronto Center
06:04PM 43.9667 -79.7667 104° East 520 598 33,000  Level Toronto Center
06:05PM 43.9333 -79.5667 103° East 500 575 33,000  Level Toronto Center
06:06PM 43.9000 -79.3833 104° East 500 575 33,000  Level Toronto Center
06:07PM 43.8667 -79.2000 104° East 500 575 33,000  Level Toronto Center
06:08PM 43.8500 -79.0167 97° East 510 587 33,000  Level Toronto Center
06:09PM 43.8167 -78.8167 103° East 510 587 33,000  Level Toronto Center
06:10PM 43.8167 -78.6000 90° East 520 598 33,000  Level Toronto Center
06:11PM 43.7833 -78.4167 104° East 520 598 33,000  Level Toronto Center
06:12PM 43.7833 -78.2000 90° East 530 610 33,000  Level Toronto Center
06:13PM 43.7833 -78.0000 90° East 530 610 33,000  Level Toronto Center
06:14PM 43.7667 -77.8167 97° East 520 598 33,000  Level Toronto Center
06:15PM 43.7667 -77.6000 90° East 520 598 33,000  Level Toronto Center
06:16PM 43.7667 -77.4167 90° East 520 598 33,000  Level Toronto Center
06:17PM 43.7333 -77.2167 103° East 520 598 33,000  Level Toronto Center
06:18PM 43.7333 -77.0000 90° East 520 598 33,000  Level Toronto Center
06:20PM 43.7053 -76.6367 96° East 509 586 33,000 -300 Level Boston Center
06:21PM 43.6228 -76.4358 120° Southeast 498 573 32,100 -1,620 Descending Boston Center
06:22PM 43.5575 -76.2711 119° Southeast 493 567 29,800 -2,100 Descending Boston Center
06:23PM 43.4939 -76.1094 118° Southeast 488 562 27,900 -1,740 Descending Boston Center
06:24PM 43.4342 -75.9544 118° Southeast 477 549 26,400 -1,920 Descending Boston Center
06:25PM 43.3806 -75.7969 115° Southeast 466 536 24,100 -1,800 Descending Boston Center
06:26PM 43.3311 -75.6372 113° Southeast 454 522 22,900 -1,140 Descending Boston Center
06:27PM 43.2831 -75.4864 114° Southeast 442 509 21,900 -960 Descending Boston Center
06:28PM 43.2369 -75.3331 112° Southeast 442 509 21,000 -960 Descending Boston Center
06:29PM 43.1944 -75.1942 113° Southeast 442 509 20,000 -1,020 Descending Boston Center
06:30PM 43.1481 -75.0469 113° Southeast 437 503 19,000 -1,380 Descending Boston Center
06:31PM 43.1031 -74.9056 114° Southeast 419 482 17,300 -2,280 Descending Boston Center
06:32PM 43.0483 -74.7303 113° Southeast 398 458 14,200 -2,580 Descending Boston Center
06:33PM 43.0053 -74.5922 113° Southeast 391 450 11,800 -1,620 Descending Boston Center
06:34PM 42.9639 -74.4658 114° Southeast 369 425 11,000 -720 Descending Boston Center
06:35PM 42.9492 -74.3578 101° East 351 404 10,500 -1,140 Descending Boston Center
06:36PM 42.9444 -74.2525 93° East 320 368 8,900 -1,920 Descending Boston Center
06:37PM 42.9403 -74.1275 93° East 305 351 6,700 -2,040 Descending Boston Center
06:38PM 42.9353 -74.0253 94° East 305 351 4,900 -1,800 Descending Boston Center
06:39PM 42.9308 -73.9061 93° East 293 337 3,100 -1,200 Descending Boston Center
06:40PM 42.9089 -73.8292 111° Southeast 274 315 2,500 -360 Descending Boston Center
06:41PM 42.8636 -73.7800 141° Southeast 227 261 2,400 -120 Descending Boston Center